sensor_id;sensor_type;location;lat;lon;timestamp;P1;durP1;ratioP1;P2;durP2;ratioP2
179;SDS011;78;48.788;9.010;2022-12-29T00:01:49;16.40;;;3.37;;
179;SDS011;78;48.788;9.010;2022-12-29T00:04:15;17.00;;;3.67;;
179;SDS011;78;48.788;9.010;2022-12-29T00:06:42;17.17;;;3.73;;
179;SDS011;78;48.788;9.010;2022-12-29T00:09:08;19.67;;;3.53;;
179;SDS011;78;48.788;9.010;2022-12-29T00:11:36;18.73;;;3.37;;
179;SDS011;78;48.788;9.010;2022-12-29T00:14:02;19.97;;;3.60;;
179;SDS011;78;48.788;9.010;2022-12-29T00:16:47;19.13;;;3.60;;
179;SDS011;78;48.788;9.010;2022-12-29T00:19:13;16.83;;;3.30;;
179;SDS011;78;48.788;9.010;2022-12-29T00:21:58;17.13;;;3.50;;
179;SDS011;78;48.788;9.010;2022-12-29T00:24:44;15.50;;;3.30;;
179;SDS011;78;48.788;9.010;2022-12-29T00:27:28;18.43;;;3.87;;
179;SDS011;78;48.788;9.010;2022-12-29T00:30:17;16.97;;;3.27;;
179;SDS011;78;48.788;9.010;2022-12-29T00:36:15;17.20;;;3.40;;
179;SDS011;78;48.788;9.010;2022-12-29T00:38:44;32.20;;;8.50;;
179;SDS011;78;48.788;9.010;2022-12-29T00:41:29;19.93;;;4.07;;
179;SDS011;78;48.788;9.010;2022-12-29T00:44:15;17.03;;;3.47;;
179;SDS011;78;48.788;9.010;2022-12-29T00:46:41;17.47;;;3.20;;
179;SDS011;78;48.788;9.010;2022-12-29T00:49:09;19.97;;;3.57;;
179;SDS011;78;48.788;9.010;2022-12-29T00:51:56;16.80;;;3.20;;
179;SDS011;78;48.788;9.010;2022-12-29T00:54:22;16.20;;;3.00;;
179;SDS011;78;48.788;9.010;2022-12-29T00:56:49;24.03;;;3.70;;
179;SDS011;78;48.788;9.010;2022-12-29T00:59:16;17.80;;;3.30;;
179;SDS011;78;48.788;9.010;2022-12-29T01:01:42;16.47;;;3.27;;
179;SDS011;78;48.788;9.010;2022-12-29T01:04:09;16.90;;;3.00;;
179;SDS011;78;48.788;9.010;2022-12-29T01:06:36;16.87;;;2.90;;
179;SDS011;78;48.788;9.010;2022-12-29T01:09:03;18.30;;;3.10;;
179;SDS011;78;48.788;9.010;2022-12-29T01:11:48;17.23;;;3.17;;
179;SDS011;78;48.788;9.010;2022-12-29T01:14:15;17.57;;;3.30;;
179;SDS011;78;48.788;9.010;2022-12-29T01:16:41;16.77;;;3.33;;
179;SDS011;78;48.788;9.010;2022-12-29T01:19:07;18.97;;;3.33;;
179;SDS011;78;48.788;9.010;2022-12-29T01:21:33;19.23;;;3.30;;
179;SDS011;78;48.788;9.010;2022-12-29T01:23:59;18.97;;;3.20;;
179;SDS011;78;48.788;9.010;2022-12-29T01:26:26;16.97;;;3.10;;
179;SDS011;78;48.788;9.010;2022-12-29T01:28:52;18.30;;;3.10;;
179;SDS011;78;48.788;9.010;2022-12-29T01:31:19;17.17;;;2.97;;
179;SDS011;78;48.788;9.010;2022-12-29T01:33:45;17.00;;;3.20;;
179;SDS011;78;48.788;9.010;2022-12-29T01:36:13;16.10;;;3.20;;
179;SDS011;78;48.788;9.010;2022-12-29T01:38:40;16.93;;;2.90;;
179;SDS011;78;48.788;9.010;2022-12-29T01:41:08;21.13;;;3.43;;
179;SDS011;78;48.788;9.010;2022-12-29T01:43:45;16.07;;;2.90;;
179;SDS011;78;48.788;9.010;2022-12-29T01:46:21;19.10;;;3.23;;
179;SDS011;78;48.788;9.010;2022-12-29T01:48:53;18.43;;;2.93;;
179;SDS011;78;48.788;9.010;2022-12-29T01:51:22;18.67;;;3.20;;
179;SDS011;78;48.788;9.010;2022-12-29T01:53:48;20.67;;;3.23;;
179;SDS011;78;48.788;9.010;2022-12-29T01:56:16;16.67;;;3.23;;
179;SDS011;78;48.788;9.010;2022-12-29T01:58:44;16.43;;;3.27;;
179;SDS011;78;48.788;9.010;2022-12-29T02:01:12;18.90;;;3.20;;
179;SDS011;78;48.788;9.010;2022-12-29T02:03:39;18.40;;;3.17;;
179;SDS011;78;48.788;9.010;2022-12-29T02:08:31;20.23;;;3.10;;
179;SDS011;78;48.788;9.010;2022-12-29T02:10:59;20.17;;;2.90;;
179;SDS011;78;48.788;9.010;2022-12-29T02:13:26;16.43;;;3.00;;
179;SDS011;78;48.788;9.010;2022-12-29T02:18:28;15.97;;;3.00;;
179;SDS011;78;48.788;9.010;2022-12-29T02:21:18;18.40;;;2.93;;
179;SDS011;78;48.788;9.010;2022-12-29T02:26:57;16.87;;;3.10;;
179;SDS011;78;48.788;9.010;2022-12-29T02:40:25;22.27;;;3.27;;
179;SDS011;78;48.788;9.010;2022-12-29T02:45:26;22.27;;;3.23;;
179;SDS011;78;48.788;9.010;2022-12-29T02:50:42;18.53;;;3.20;;
179;SDS011;78;48.788;9.010;2022-12-29T02:53:11;19.43;;;3.00;;
179;SDS011;78;48.788;9.010;2022-12-29T02:55:38;16.80;;;2.60;;
179;SDS011;78;48.788;9.010;2022-12-29T02:58:13;15.40;;;2.57;;
179;SDS011;78;48.788;9.010;2022-12-29T03:00:48;19.90;;;3.13;;
179;SDS011;78;48.788;9.010;2022-12-29T03:03:30;16.00;;;2.80;;
179;SDS011;78;48.788;9.010;2022-12-29T03:06:18;16.93;;;3.03;;
179;SDS011;78;48.788;9.010;2022-12-29T03:08:49;15.97;;;2.57;;
179;SDS011;78;48.788;9.010;2022-12-29T03:11:17;16.00;;;3.03;;
179;SDS011;78;48.788;9.010;2022-12-29T03:14:11;17.20;;;3.13;;
179;SDS011;78;48.788;9.010;2022-12-29T03:17:01;18.03;;;2.80;;
179;SDS011;78;48.788;9.010;2022-12-29T03:19:35;16.37;;;2.90;;
179;SDS011;78;48.788;9.010;2022-12-29T03:22:04;18.80;;;2.80;;
179;SDS011;78;48.788;9.010;2022-12-29T03:25:35;17.63;;;2.70;;
179;SDS011;78;48.788;9.010;2022-12-29T03:27:43;20.10;;;3.47;;
179;SDS011;78;48.788;9.010;2022-12-29T03:30:10;14.80;;;2.60;;
179;SDS011;78;48.788;9.010;2022-12-29T03:32:39;19.13;;;3.03;;
179;SDS011;78;48.788;9.010;2022-12-29T03:35:07;16.20;;;2.83;;
179;SDS011;78;48.788;9.010;2022-12-29T03:37:37;16.20;;;2.70;;
179;SDS011;78;48.788;9.010;2022-12-29T03:40:05;15.27;;;2.57;;
179;SDS011;78;48.788;9.010;2022-12-29T03:42:32;16.60;;;2.80;;
179;SDS011;78;48.788;9.010;2022-12-29T03:44:59;24.40;;;2.90;;
179;SDS011;78;48.788;9.010;2022-12-29T03:47:25;17.40;;;3.00;;
179;SDS011;78;48.788;9.010;2022-12-29T03:49:52;15.10;;;2.70;;
179;SDS011;78;48.788;9.010;2022-12-29T03:52:18;15.50;;;2.67;;
179;SDS011;78;48.788;9.010;2022-12-29T03:54:44;16.00;;;2.97;;
179;SDS011;78;48.788;9.010;2022-12-29T03:57:11;16.73;;;2.83;;
179;SDS011;78;48.788;9.010;2022-12-29T03:59:37;16.70;;;2.73;;
179;SDS011;78;48.788;9.010;2022-12-29T04:02:03;15.80;;;2.90;;
179;SDS011;78;48.788;9.010;2022-12-29T04:04:30;18.13;;;3.03;;
179;SDS011;78;48.788;9.010;2022-12-29T04:06:56;17.90;;;2.77;;
179;SDS011;78;48.788;9.010;2022-12-29T04:09:23;17.07;;;2.93;;
179;SDS011;78;48.788;9.010;2022-12-29T04:11:49;15.40;;;2.57;;
179;SDS011;78;48.788;9.010;2022-12-29T04:14:15;19.67;;;2.80;;
179;SDS011;78;48.788;9.010;2022-12-29T04:16:42;17.00;;;2.90;;
179;SDS011;78;48.788;9.010;2022-12-29T04:19:08;21.47;;;3.27;;
179;SDS011;78;48.788;9.010;2022-12-29T04:21:34;17.43;;;2.70;;
179;SDS011;78;48.788;9.010;2022-12-29T04:24:01;18.77;;;2.90;;
179;SDS011;78;48.788;9.010;2022-12-29T04:26:28;15.40;;;2.80;;
179;SDS011;78;48.788;9.010;2022-12-29T04:28:54;16.53;;;2.90;;
179;SDS011;78;48.788;9.010;2022-12-29T04:31:20;17.47;;;3.37;;
179;SDS011;78;48.788;9.010;2022-12-29T04:33:47;15.83;;;2.67;;
179;SDS011;78;48.788;9.010;2022-12-29T04:36:13;16.40;;;3.17;;
179;SDS011;78;48.788;9.010;2022-12-29T04:38:39;17.10;;;3.27;;
179;SDS011;78;48.788;9.010;2022-12-29T04:41:05;17.60;;;3.20;;
179;SDS011;78;48.788;9.010;2022-12-29T04:43:31;15.87;;;2.80;;
179;SDS011;78;48.788;9.010;2022-12-29T04:45:57;16.30;;;3.03;;
179;SDS011;78;48.788;9.010;2022-12-29T04:48:23;22.80;;;3.37;;
179;SDS011;78;48.788;9.010;2022-12-29T04:50:49;16.73;;;3.00;;
179;SDS011;78;48.788;9.010;2022-12-29T04:53:16;16.13;;;3.10;;
179;SDS011;78;48.788;9.010;2022-12-29T04:55:42;19.30;;;3.30;;
179;SDS011;78;48.788;9.010;2022-12-29T04:58:09;17.13;;;3.10;;
179;SDS011;78;48.788;9.010;2022-12-29T05:00:35;19.57;;;3.07;;
179;SDS011;78;48.788;9.010;2022-12-29T05:03:01;17.57;;;3.00;;
179;SDS011;78;48.788;9.010;2022-12-29T05:05:28;17.10;;;3.03;;
179;SDS011;78;48.788;9.010;2022-12-29T05:07:54;17.47;;;3.33;;
179;SDS011;78;48.788;9.010;2022-12-29T05:10:21;16.73;;;3.20;;
179;SDS011;78;48.788;9.010;2022-12-29T05:12:48;16.93;;;2.83;;
179;SDS011;78;48.788;9.010;2022-12-29T05:15:14;15.87;;;3.40;;
179;SDS011;78;48.788;9.010;2022-12-29T05:17:41;16.40;;;3.00;;
179;SDS011;78;48.788;9.010;2022-12-29T05:20:07;19.27;;;3.87;;
179;SDS011;78;48.788;9.010;2022-12-29T05:22:34;16.93;;;3.00;;
179;SDS011;78;48.788;9.010;2022-12-29T05:25:00;16.77;;;3.50;;
179;SDS011;78;48.788;9.010;2022-12-29T05:27:26;17.50;;;3.60;;
179;SDS011;78;48.788;9.010;2022-12-29T05:29:53;20.10;;;3.97;;
179;SDS011;78;48.788;9.010;2022-12-29T05:32:19;17.67;;;3.23;;
179;SDS011;78;48.788;9.010;2022-12-29T05:34:46;16.80;;;3.40;;
179;SDS011;78;48.788;9.010;2022-12-29T05:37:12;17.67;;;3.57;;
179;SDS011;78;48.788;9.010;2022-12-29T05:39:38;16.20;;;3.40;;
179;SDS011;78;48.788;9.010;2022-12-29T05:42:05;19.50;;;3.73;;
179;SDS011;78;48.788;9.010;2022-12-29T05:44:31;16.57;;;3.23;;
179;SDS011;78;48.788;9.010;2022-12-29T05:46:58;17.60;;;3.40;;
179;SDS011;78;48.788;9.010;2022-12-29T05:49:24;18.57;;;3.50;;
179;SDS011;78;48.788;9.010;2022-12-29T05:51:50;18.93;;;3.50;;
179;SDS011;78;48.788;9.010;2022-12-29T05:54:16;17.80;;;3.60;;
179;SDS011;78;48.788;9.010;2022-12-29T05:56:43;22.60;;;3.70;;
179;SDS011;78;48.788;9.010;2022-12-29T05:59:09;16.00;;;3.20;;
179;SDS011;78;48.788;9.010;2022-12-29T06:01:35;16.33;;;3.47;;
179;SDS011;78;48.788;9.010;2022-12-29T06:04:02;18.37;;;3.60;;
179;SDS011;78;48.788;9.010;2022-12-29T06:06:28;25.03;;;3.50;;
179;SDS011;78;48.788;9.010;2022-12-29T06:08:55;15.77;;;3.17;;
179;SDS011;78;48.788;9.010;2022-12-29T06:11:21;25.30;;;4.10;;
179;SDS011;78;48.788;9.010;2022-12-29T06:13:47;17.20;;;3.10;;
179;SDS011;78;48.788;9.010;2022-12-29T06:16:12;18.73;;;3.30;;
179;SDS011;78;48.788;9.010;2022-12-29T06:18:39;17.43;;;3.50;;
179;SDS011;78;48.788;9.010;2022-12-29T06:21:05;18.07;;;3.20;;
179;SDS011;78;48.788;9.010;2022-12-29T06:23:32;16.63;;;3.30;;
179;SDS011;78;48.788;9.010;2022-12-29T06:25:58;19.77;;;3.50;;
179;SDS011;78;48.788;9.010;2022-12-29T06:28:25;16.60;;;3.40;;
179;SDS011;78;48.788;9.010;2022-12-29T06:30:51;18.30;;;3.60;;
179;SDS011;78;48.788;9.010;2022-12-29T06:33:17;18.60;;;3.60;;
179;SDS011;78;48.788;9.010;2022-12-29T06:35:43;17.73;;;3.37;;
179;SDS011;78;48.788;9.010;2022-12-29T06:38:10;15.53;;;3.20;;
179;SDS011;78;48.788;9.010;2022-12-29T06:40:37;17.03;;;3.27;;
179;SDS011;78;48.788;9.010;2022-12-29T06:43:03;18.77;;;3.40;;
179;SDS011;78;48.788;9.010;2022-12-29T06:45:29;16.00;;;3.50;;
179;SDS011;78;48.788;9.010;2022-12-29T06:47:56;16.30;;;3.30;;
179;SDS011;78;48.788;9.010;2022-12-29T06:50:21;18.93;;;3.40;;
179;SDS011;78;48.788;9.010;2022-12-29T06:52:48;18.10;;;3.70;;
179;SDS011;78;48.788;9.010;2022-12-29T06:55:14;22.60;;;3.47;;
179;SDS011;78;48.788;9.010;2022-12-29T06:57:41;18.17;;;3.30;;
179;SDS011;78;48.788;9.010;2022-12-29T07:00:08;16.93;;;3.40;;
179;SDS011;78;48.788;9.010;2022-12-29T07:02:35;18.77;;;3.67;;
179;SDS011;78;48.788;9.010;2022-12-29T07:05:01;24.33;;;3.80;;
179;SDS011;78;48.788;9.010;2022-12-29T07:07:27;19.40;;;3.20;;
179;SDS011;78;48.788;9.010;2022-12-29T07:09:53;15.97;;;3.30;;
179;SDS011;78;48.788;9.010;2022-12-29T07:12:19;17.60;;;3.40;;
179;SDS011;78;48.788;9.010;2022-12-29T07:14:45;22.13;;;3.60;;
179;SDS011;78;48.788;9.010;2022-12-29T07:17:12;18.27;;;3.40;;
179;SDS011;78;48.788;9.010;2022-12-29T07:19:38;17.40;;;3.30;;
179;SDS011;78;48.788;9.010;2022-12-29T07:22:04;17.70;;;3.43;;
179;SDS011;78;48.788;9.010;2022-12-29T07:24:30;16.90;;;3.47;;
179;SDS011;78;48.788;9.010;2022-12-29T07:26:56;21.10;;;3.60;;
179;SDS011;78;48.788;9.010;2022-12-29T07:29:22;19.93;;;3.50;;
179;SDS011;78;48.788;9.010;2022-12-29T07:31:49;22.57;;;3.30;;
179;SDS011;78;48.788;9.010;2022-12-29T07:34:15;17.60;;;3.23;;
179;SDS011;78;48.788;9.010;2022-12-29T07:36:41;16.63;;;3.30;;
179;SDS011;78;48.788;9.010;2022-12-29T07:39:07;22.40;;;3.97;;
179;SDS011;78;48.788;9.010;2022-12-29T07:41:33;15.70;;;3.10;;
179;SDS011;78;48.788;9.010;2022-12-29T07:43:59;19.23;;;3.60;;
179;SDS011;78;48.788;9.010;2022-12-29T07:46:25;16.03;;;3.27;;
179;SDS011;78;48.788;9.010;2022-12-29T07:48:51;18.90;;;3.20;;
179;SDS011;78;48.788;9.010;2022-12-29T07:51:17;18.20;;;3.70;;
179;SDS011;78;48.788;9.010;2022-12-29T07:53:43;17.37;;;3.50;;
179;SDS011;78;48.788;9.010;2022-12-29T07:56:09;16.00;;;3.30;;
179;SDS011;78;48.788;9.010;2022-12-29T07:58:35;25.20;;;6.33;;
179;SDS011;78;48.788;9.010;2022-12-29T08:01:01;22.40;;;3.60;;
179;SDS011;78;48.788;9.010;2022-12-29T08:03:27;17.90;;;3.60;;
179;SDS011;78;48.788;9.010;2022-12-29T08:05:53;22.67;;;7.30;;
179;SDS011;78;48.788;9.010;2022-12-29T08:08:20;18.33;;;4.20;;
179;SDS011;78;48.788;9.010;2022-12-29T08:10:46;16.17;;;3.03;;
179;SDS011;78;48.788;9.010;2022-12-29T08:13:13;18.03;;;4.03;;
179;SDS011;78;48.788;9.010;2022-12-29T08:15:39;16.80;;;3.23;;
179;SDS011;78;48.788;9.010;2022-12-29T08:18:05;17.00;;;3.30;;
179;SDS011;78;48.788;9.010;2022-12-29T08:20:32;19.93;;;3.63;;
179;SDS011;78;48.788;9.010;2022-12-29T08:22:58;17.43;;;3.17;;
179;SDS011;78;48.788;9.010;2022-12-29T08:25:25;17.33;;;2.90;;
179;SDS011;78;48.788;9.010;2022-12-29T08:27:51;17.00;;;3.40;;
179;SDS011;78;48.788;9.010;2022-12-29T08:30:18;16.33;;;3.03;;
179;SDS011;78;48.788;9.010;2022-12-29T08:32:44;16.03;;;3.20;;
179;SDS011;78;48.788;9.010;2022-12-29T08:35:10;17.53;;;3.40;;
179;SDS011;78;48.788;9.010;2022-12-29T08:37:37;16.90;;;3.07;;
179;SDS011;78;48.788;9.010;2022-12-29T08:40:04;16.37;;;2.77;;
179;SDS011;78;48.788;9.010;2022-12-29T08:42:31;17.67;;;3.57;;
179;SDS011;78;48.788;9.010;2022-12-29T08:44:58;17.67;;;3.70;;
179;SDS011;78;48.788;9.010;2022-12-29T08:47:24;21.87;;;3.13;;
179;SDS011;78;48.788;9.010;2022-12-29T08:49:50;19.77;;;3.70;;
179;SDS011;78;48.788;9.010;2022-12-29T08:52:16;19.30;;;3.07;;
179;SDS011;78;48.788;9.010;2022-12-29T08:54:43;21.10;;;3.27;;
179;SDS011;78;48.788;9.010;2022-12-29T08:57:09;18.13;;;3.43;;
179;SDS011;78;48.788;9.010;2022-12-29T08:59:35;19.10;;;3.40;;
179;SDS011;78;48.788;9.010;2022-12-29T09:02:01;16.60;;;3.27;;
179;SDS011;78;48.788;9.010;2022-12-29T09:04:28;18.03;;;3.37;;
179;SDS011;78;48.788;9.010;2022-12-29T09:06:54;16.57;;;3.20;;
179;SDS011;78;48.788;9.010;2022-12-29T09:09:20;16.00;;;3.07;;
179;SDS011;78;48.788;9.010;2022-12-29T09:11:46;21.57;;;3.70;;
179;SDS011;78;48.788;9.010;2022-12-29T09:14:12;21.20;;;3.30;;
179;SDS011;78;48.788;9.010;2022-12-29T09:16:38;17.70;;;3.07;;
179;SDS011;78;48.788;9.010;2022-12-29T09:19:04;16.93;;;3.30;;
179;SDS011;78;48.788;9.010;2022-12-29T09:21:30;20.83;;;3.40;;
179;SDS011;78;48.788;9.010;2022-12-29T09:23:56;18.63;;;3.30;;
179;SDS011;78;48.788;9.010;2022-12-29T09:26:22;18.87;;;3.20;;
179;SDS011;78;48.788;9.010;2022-12-29T09:28:49;25.53;;;3.40;;
179;SDS011;78;48.788;9.010;2022-12-29T09:31:15;22.10;;;3.00;;
179;SDS011;78;48.788;9.010;2022-12-29T09:33:41;20.43;;;3.30;;
179;SDS011;78;48.788;9.010;2022-12-29T09:36:08;17.30;;;3.00;;
179;SDS011;78;48.788;9.010;2022-12-29T09:38:34;17.63;;;3.20;;
179;SDS011;78;48.788;9.010;2022-12-29T09:41:04;22.80;;;3.20;;
179;SDS011;78;48.788;9.010;2022-12-29T09:48:28;18.23;;;3.20;;
179;SDS011;78;48.788;9.010;2022-12-29T09:50:55;17.80;;;2.93;;
179;SDS011;78;48.788;9.010;2022-12-29T09:53:28;17.50;;;2.73;;
179;SDS011;78;48.788;9.010;2022-12-29T09:55:55;16.60;;;3.07;;
179;SDS011;78;48.788;9.010;2022-12-29T10:01:04;17.03;;;2.70;;
179;SDS011;78;48.788;9.010;2022-12-29T10:24:31;17.20;;;3.00;;
179;SDS011;78;48.788;9.010;2022-12-29T10:26:59;18.23;;;3.10;;
179;SDS011;78;48.788;9.010;2022-12-29T10:29:37;22.93;;;3.30;;
179;SDS011;78;48.788;9.010;2022-12-29T10:32:05;19.17;;;2.90;;
179;SDS011;78;48.788;9.010;2022-12-29T10:34:38;16.50;;;3.07;;
179;SDS011;78;48.788;9.010;2022-12-29T10:39:52;21.73;;;3.33;;
179;SDS011;78;48.788;9.010;2022-12-29T10:42:35;23.47;;;3.53;;
179;SDS011;78;48.788;9.010;2022-12-29T10:45:02;24.40;;;5.30;;
179;SDS011;78;48.788;9.010;2022-12-29T10:47:31;20.93;;;4.67;;
179;SDS011;78;48.788;9.010;2022-12-29T10:50:01;22.07;;;3.30;;
179;SDS011;78;48.788;9.010;2022-12-29T10:52:27;18.50;;;3.10;;
179;SDS011;78;48.788;9.010;2022-12-29T10:54:58;17.70;;;3.53;;
179;SDS011;78;48.788;9.010;2022-12-29T10:57:26;19.87;;;2.90;;
179;SDS011;78;48.788;9.010;2022-12-29T10:59:53;16.70;;;3.00;;
179;SDS011;78;48.788;9.010;2022-12-29T11:05:06;18.30;;;3.20;;
179;SDS011;78;48.788;9.010;2022-12-29T11:07:34;17.47;;;2.90;;
179;SDS011;78;48.788;9.010;2022-12-29T11:10:15;17.20;;;3.10;;
179;SDS011;78;48.788;9.010;2022-12-29T11:12:42;15.13;;;2.70;;
179;SDS011;78;48.788;9.010;2022-12-29T11:15:19;16.70;;;3.30;;
179;SDS011;78;48.788;9.010;2022-12-29T11:17:47;18.20;;;3.23;;
179;SDS011;78;48.788;9.010;2022-12-29T11:22:58;18.13;;;3.20;;
179;SDS011;78;48.788;9.010;2022-12-29T11:25:24;15.70;;;2.83;;
179;SDS011;78;48.788;9.010;2022-12-29T11:28:13;16.33;;;3.10;;
179;SDS011;78;48.788;9.010;2022-12-29T11:30:40;17.10;;;2.93;;
179;SDS011;78;48.788;9.010;2022-12-29T11:33:07;18.50;;;4.00;;
179;SDS011;78;48.788;9.010;2022-12-29T11:35:35;17.20;;;3.50;;
179;SDS011;78;48.788;9.010;2022-12-29T11:38:01;16.90;;;2.87;;
179;SDS011;78;48.788;9.010;2022-12-29T11:40:28;17.20;;;2.40;;
179;SDS011;78;48.788;9.010;2022-12-29T11:42:55;15.70;;;2.40;;
179;SDS011;78;48.788;9.010;2022-12-29T11:45:23;16.97;;;3.50;;
179;SDS011;78;48.788;9.010;2022-12-29T11:47:53;16.57;;;3.03;;
179;SDS011;78;48.788;9.010;2022-12-29T11:50:27;20.50;;;4.00;;
179;SDS011;78;48.788;9.010;2022-12-29T11:53:37;19.63;;;3.23;;
179;SDS011;78;48.788;9.010;2022-12-29T11:55:51;21.80;;;3.60;;
179;SDS011;78;48.788;9.010;2022-12-29T11:58:17;19.10;;;3.33;;
179;SDS011;78;48.788;9.010;2022-12-29T12:00:43;17.37;;;3.30;;
179;SDS011;78;48.788;9.010;2022-12-29T12:03:15;19.17;;;3.80;;
179;SDS011;78;48.788;9.010;2022-12-29T12:05:47;17.47;;;3.37;;
179;SDS011;78;48.788;9.010;2022-12-29T12:11:17;18.60;;;3.60;;
179;SDS011;78;48.788;9.010;2022-12-29T12:16:17;19.13;;;3.77;;
179;SDS011;78;48.788;9.010;2022-12-29T12:18:47;17.90;;;3.87;;
179;SDS011;78;48.788;9.010;2022-12-29T12:26:27;18.73;;;3.47;;
179;SDS011;78;48.788;9.010;2022-12-29T12:28:59;20.63;;;3.90;;
179;SDS011;78;48.788;9.010;2022-12-29T12:33:57;17.87;;;3.40;;
179;SDS011;78;48.788;9.010;2022-12-29T12:39:06;15.70;;;2.97;;
179;SDS011;78;48.788;9.010;2022-12-29T12:44:10;17.23;;;3.43;;
179;SDS011;78;48.788;9.010;2022-12-29T12:59:52;16.77;;;3.20;;
179;SDS011;78;48.788;9.010;2022-12-29T13:28:05;18.00;;;3.37;;
179;SDS011;78;48.788;9.010;2022-12-29T13:30:34;17.80;;;3.60;;
179;SDS011;78;48.788;9.010;2022-12-29T13:38:23;19.30;;;3.50;;
179;SDS011;78;48.788;9.010;2022-12-29T13:40:52;24.03;;;5.10;;
179;SDS011;78;48.788;9.010;2022-12-29T13:43:20;18.97;;;3.30;;
179;SDS011;78;48.788;9.010;2022-12-29T13:45:48;19.13;;;3.43;;
179;SDS011;78;48.788;9.010;2022-12-29T13:48:17;16.90;;;3.30;;
179;SDS011;78;48.788;9.010;2022-12-29T13:50:45;21.10;;;3.40;;
179;SDS011;78;48.788;9.010;2022-12-29T13:58:41;16.20;;;3.20;;
179;SDS011;78;48.788;9.010;2022-12-29T14:01:12;17.20;;;3.40;;
179;SDS011;78;48.788;9.010;2022-12-29T14:03:49;17.10;;;3.57;;
179;SDS011;78;48.788;9.010;2022-12-29T14:08:45;20.07;;;3.60;;
179;SDS011;78;48.788;9.010;2022-12-29T14:11:12;16.00;;;3.33;;
179;SDS011;78;48.788;9.010;2022-12-29T14:13:40;18.37;;;4.67;;
179;SDS011;78;48.788;9.010;2022-12-29T14:16:07;15.90;;;3.83;;
179;SDS011;78;48.788;9.010;2022-12-29T14:18:41;17.63;;;3.43;;
179;SDS011;78;48.788;9.010;2022-12-29T14:28:32;19.23;;;3.90;;
179;SDS011;78;48.788;9.010;2022-12-29T14:31:02;16.60;;;3.27;;
179;SDS011;78;48.788;9.010;2022-12-29T14:33:33;24.33;;;3.53;;
179;SDS011;78;48.788;9.010;2022-12-29T14:39:03;16.80;;;3.70;;
179;SDS011;78;48.788;9.010;2022-12-29T14:41:31;17.70;;;3.40;;
179;SDS011;78;48.788;9.010;2022-12-29T14:46:49;53.20;;;21.17;;
179;SDS011;78;48.788;9.010;2022-12-29T14:49:27;32.70;;;8.90;;
179;SDS011;78;48.788;9.010;2022-12-29T14:51:55;25.03;;;5.27;;
179;SDS011;78;48.788;9.010;2022-12-29T14:56:59;27.57;;;6.17;;
179;SDS011;78;48.788;9.010;2022-12-29T14:59:26;20.20;;;3.70;;
179;SDS011;78;48.788;9.010;2022-12-29T15:01:53;23.40;;;4.30;;
179;SDS011;78;48.788;9.010;2022-12-29T15:04:20;18.57;;;3.73;;
179;SDS011;78;48.788;9.010;2022-12-29T15:06:48;16.80;;;3.03;;
179;SDS011;78;48.788;9.010;2022-12-29T15:09:28;19.47;;;3.50;;
179;SDS011;78;48.788;9.010;2022-12-29T15:14:47;17.27;;;3.40;;
179;SDS011;78;48.788;9.010;2022-12-29T15:17:30;16.43;;;3.30;;
179;SDS011;78;48.788;9.010;2022-12-29T15:19:57;16.20;;;3.33;;
179;SDS011;78;48.788;9.010;2022-12-29T15:22:24;18.47;;;3.97;;
179;SDS011;78;48.788;9.010;2022-12-29T15:24:54;17.60;;;3.60;;
179;SDS011;78;48.788;9.010;2022-12-29T15:27:22;18.57;;;4.63;;
179;SDS011;78;48.788;9.010;2022-12-29T15:29:56;17.90;;;4.57;;
179;SDS011;78;48.788;9.010;2022-12-29T15:32:24;19.70;;;4.27;;
179;SDS011;78;48.788;9.010;2022-12-29T15:34:52;18.80;;;4.37;;
179;SDS011;78;48.788;9.010;2022-12-29T15:37:20;22.63;;;4.53;;
179;SDS011;78;48.788;9.010;2022-12-29T15:39:47;21.07;;;5.10;;
179;SDS011;78;48.788;9.010;2022-12-29T15:44:45;16.47;;;3.30;;
179;SDS011;78;48.788;9.010;2022-12-29T15:47:15;18.40;;;4.20;;
179;SDS011;78;48.788;9.010;2022-12-29T15:49:43;20.00;;;3.30;;
179;SDS011;78;48.788;9.010;2022-12-29T15:52:10;17.53;;;3.80;;
179;SDS011;78;48.788;9.010;2022-12-29T15:54:36;16.50;;;2.70;;
179;SDS011;78;48.788;9.010;2022-12-29T15:57:03;17.80;;;3.20;;
179;SDS011;78;48.788;9.010;2022-12-29T15:59:30;16.80;;;2.80;;
179;SDS011;78;48.788;9.010;2022-12-29T16:01:58;16.33;;;2.40;;
179;SDS011;78;48.788;9.010;2022-12-29T16:04:25;16.70;;;2.97;;
179;SDS011;78;48.788;9.010;2022-12-29T16:11:58;57.50;;;24.10;;
179;SDS011;78;48.788;9.010;2022-12-29T16:14:30;56.83;;;20.43;;
179;SDS011;78;48.788;9.010;2022-12-29T16:16:58;27.80;;;9.80;;
179;SDS011;78;48.788;9.010;2022-12-29T16:19:36;26.87;;;9.40;;
179;SDS011;78;48.788;9.010;2022-12-29T16:22:03;23.90;;;7.70;;
179;SDS011;78;48.788;9.010;2022-12-29T16:24:36;20.57;;;5.47;;
179;SDS011;78;48.788;9.010;2022-12-29T16:27:23;31.77;;;11.87;;
179;SDS011;78;48.788;9.010;2022-12-29T16:29:53;33.23;;;12.70;;
179;SDS011;78;48.788;9.010;2022-12-29T16:32:24;27.87;;;8.30;;
179;SDS011;78;48.788;9.010;2022-12-29T16:34:51;27.77;;;9.53;;
179;SDS011;78;48.788;9.010;2022-12-29T16:37:33;21.57;;;6.40;;
179;SDS011;78;48.788;9.010;2022-12-29T16:42:47;18.03;;;4.10;;
179;SDS011;78;48.788;9.010;2022-12-29T16:47:43;25.90;;;8.53;;
179;SDS011;78;48.788;9.010;2022-12-29T16:50:11;25.70;;;8.70;;
179;SDS011;78;48.788;9.010;2022-12-29T16:52:38;26.57;;;8.90;;
179;SDS011;78;48.788;9.010;2022-12-29T16:55:04;18.30;;;3.57;;
179;SDS011;78;48.788;9.010;2022-12-29T16:57:31;15.93;;;2.70;;
179;SDS011;78;48.788;9.010;2022-12-29T17:00:05;15.27;;;2.80;;
179;SDS011;78;48.788;9.010;2022-12-29T17:02:33;15.60;;;3.00;;
179;SDS011;78;48.788;9.010;2022-12-29T17:05:12;20.30;;;6.80;;
179;SDS011;78;48.788;9.010;2022-12-29T17:07:38;16.10;;;3.20;;
179;SDS011;78;48.788;9.010;2022-12-29T17:10:05;16.33;;;2.67;;
179;SDS011;78;48.788;9.010;2022-12-29T17:12:32;19.13;;;3.40;;
179;SDS011;78;48.788;9.010;2022-12-29T17:15:02;17.37;;;2.80;;
179;SDS011;78;48.788;9.010;2022-12-29T17:17:38;19.17;;;4.63;;
179;SDS011;78;48.788;9.010;2022-12-29T17:20:08;18.53;;;3.67;;
179;SDS011;78;48.788;9.010;2022-12-29T17:22:39;14.53;;;2.37;;
179;SDS011;78;48.788;9.010;2022-12-29T17:25:10;15.07;;;2.67;;
179;SDS011;78;48.788;9.010;2022-12-29T17:27:37;14.47;;;2.20;;
179;SDS011;78;48.788;9.010;2022-12-29T17:30:11;16.00;;;2.40;;
179;SDS011;78;48.788;9.010;2022-12-29T17:32:38;15.10;;;2.53;;
179;SDS011;78;48.788;9.010;2022-12-29T17:35:05;16.27;;;2.80;;
179;SDS011;78;48.788;9.010;2022-12-29T17:37:34;15.57;;;2.90;;
179;SDS011;78;48.788;9.010;2022-12-29T17:40:02;14.73;;;2.17;;
179;SDS011;78;48.788;9.010;2022-12-29T17:42:28;14.13;;;2.30;;
179;SDS011;78;48.788;9.010;2022-12-29T17:44:57;15.83;;;2.30;;
179;SDS011;78;48.788;9.010;2022-12-29T17:47:23;14.60;;;2.30;;
179;SDS011;78;48.788;9.010;2022-12-29T17:49:49;14.00;;;2.03;;
179;SDS011;78;48.788;9.010;2022-12-29T17:52:16;14.80;;;2.40;;
179;SDS011;78;48.788;9.010;2022-12-29T17:54:46;14.93;;;2.50;;
179;SDS011;78;48.788;9.010;2022-12-29T17:57:15;18.10;;;2.90;;
179;SDS011;78;48.788;9.010;2022-12-29T17:59:41;20.97;;;5.10;;
179;SDS011;78;48.788;9.010;2022-12-29T18:02:24;39.37;;;14.73;;
179;SDS011;78;48.788;9.010;2022-12-29T18:04:51;48.77;;;19.17;;
179;SDS011;78;48.788;9.010;2022-12-29T18:07:18;53.67;;;19.20;;
179;SDS011;78;48.788;9.010;2022-12-29T18:09:44;45.53;;;18.60;;
179;SDS011;78;48.788;9.010;2022-12-29T18:12:22;57.57;;;23.40;;
179;SDS011;78;48.788;9.010;2022-12-29T18:14:50;48.23;;;21.70;;
179;SDS011;78;48.788;9.010;2022-12-29T18:17:17;27.20;;;11.07;;
179;SDS011;78;48.788;9.010;2022-12-29T18:19:43;20.93;;;6.27;;
179;SDS011;78;48.788;9.010;2022-12-29T18:22:10;19.90;;;4.77;;
179;SDS011;78;48.788;9.010;2022-12-29T18:24:36;21.37;;;6.87;;
179;SDS011;78;48.788;9.010;2022-12-29T18:27:12;18.20;;;3.77;;
179;SDS011;78;48.788;9.010;2022-12-29T18:29:39;21.80;;;7.63;;
179;SDS011;78;48.788;9.010;2022-12-29T18:32:09;17.40;;;4.30;;
179;SDS011;78;48.788;9.010;2022-12-29T18:34:35;19.60;;;6.00;;
179;SDS011;78;48.788;9.010;2022-12-29T18:37:01;21.17;;;6.67;;
179;SDS011;78;48.788;9.010;2022-12-29T18:39:27;19.90;;;6.20;;
179;SDS011;78;48.788;9.010;2022-12-29T18:41:53;19.10;;;5.70;;